Time;durP1;ratioP1;P1;durP2;ratioP2;P2;SDS_P1;SDS_P2;PMS_P1;PMS_P2;Temp;Humidity;BMP_temperature;BMP_pressure;BME280_temperature;BME280_humidity;BME280_pressure;Samples;Min_cycle;Max_cycle;Signal;HPM_P1;HPM_P2
2021/09/05 00:01:00;;;;;;;8.57;7.77;;;23.80;58.70;;;;;;5093455;28;20629;-70
2021/09/05 00:03:33;;;;;;;8.60;7.80;;;23.80;58.70;;;;;;5078438;28;20194;-69
2021/09/05 00:06:07;;;;;;;8.63;7.83;;;23.80;58.70;;;;;;5046344;28;20205;-69
2021/09/05 00:08:41;;;;;;;8.33;7.63;;;23.80;58.70;;;;;;5086401;28;20205;-69
2021/09/05 00:11:13;;;;;;;8.93;8.13;;;23.80;58.70;;;;;;5072261;28;20216;-69
2021/09/05 00:13:41;;;;;;;9.50;8.70;;;23.80;58.70;;;;;;5075571;28;20193;-69
2021/09/05 00:16:13;;;;;;;8.77;7.97;;;23.70;58.70;;;;;;5070182;28;20229;-69
2021/09/05 00:18:42;;;;;;;8.70;7.90;;;23.70;58.60;;;;;;5037742;28;20261;-69
2021/09/05 00:21:14;;;;;;;8.80;8.00;;;23.70;58.70;;;;;;5083254;28;20205;-69
2021/09/05 00:23:43;;;;;;;9.13;8.13;;;23.80;58.70;;;;;;5074077;28;20676;-69
2021/09/05 00:26:15;;;;;;;8.60;7.73;;;23.70;58.60;;;;;;5070775;28;20212;-69
2021/09/05 00:28:46;;;;;;;8.63;7.83;;;23.70;58.70;;;;;;5089333;28;20881;-69
2021/09/05 00:31:30;;;;;;;8.50;7.70;;;23.70;58.70;;;;;;5080811;28;20224;-69
2021/09/05 00:34:02;;;;;;;9.77;8.20;;;23.70;58.60;;;;;;5085535;28;20549;-69
2021/09/05 00:36:33;;;;;;;9.10;8.30;;;23.70;58.60;;;;;;5086569;28;20224;-69
2021/09/05 00:39:13;;;;;;;10.60;7.73;;;23.70;58.70;;;;;;5081449;28;20218;-69
2021/09/05 00:41:43;;;;;;;9.03;8.13;;;23.70;58.70;;;;;;5075738;28;20189;-70
2021/09/05 00:44:14;;;;;;;9.17;8.37;;;23.70;58.70;;;;;;5112603;28;20206;-70
2021/09/05 00:46:45;;;;;;;9.60;8.20;;;23.70;58.70;;;;;;5109833;28;20557;-68
2021/09/05 00:49:31;;;;;;;9.33;8.50;;;23.70;58.70;;;;;;5110302;28;20661;-68
2021/09/05 00:52:01;;;;;;;8.73;7.93;;;23.70;58.70;;;;;;5108572;28;20184;-69
2021/09/05 00:54:32;;;;;;;8.80;8.00;;;23.70;58.60;;;;;;5094017;28;20214;-68
2021/09/05 00:57:01;;;;;;;9.00;8.20;;;23.70;58.70;;;;;;5097424;28;20246;-68
2021/09/05 00:59:37;;;;;;;9.30;8.50;;;23.60;58.70;;;;;;5110412;28;20210;-68
2021/09/05 01:02:11;;;;;;;8.70;7.90;;;23.60;58.60;;;;;;5085651;28;20220;-68
2021/09/05 01:04:43;;;;;;;7.90;7.30;;;23.70;58.70;;;;;;5105186;28;20247;-68
2021/09/05 01:07:12;;;;;;;9.30;8.40;;;23.60;58.80;;;;;;5095444;28;20201;-68
2021/09/05 01:09:44;;;;;;;8.57;7.77;;;23.60;58.70;;;;;;5109136;28;20204;-68
2021/09/05 01:12:13;;;;;;;8.60;7.90;;;23.60;58.70;;;;;;5075780;28;20200;-69
2021/09/05 01:14:43;;;;;;;8.27;7.57;;;23.60;58.70;;;;;;5109975;28;20184;-69
2021/09/05 01:17:14;;;;;;;8.13;7.43;;;23.60;58.70;;;;;;5112085;28;20199;-69
2021/09/05 01:19:45;;;;;;;8.50;7.80;;;23.60;58.70;;;;;;5109153;28;20189;-70
2021/09/05 01:22:15;;;;;;;8.87;8.07;;;23.60;58.70;;;;;;5098405;28;20196;-70
2021/09/05 01:24:45;;;;;;;8.60;7.83;;;23.60;58.70;;;;;;5093594;28;20249;-69
2021/09/05 01:27:21;;;;;;;9.13;8.33;;;23.60;58.70;;;;;;5104950;28;20219;-69
2021/09/05 01:29:55;;;;;;;8.90;8.10;;;23.60;58.70;;;;;;5094027;28;20192;-69
2021/09/05 01:32:22;;;;;;;8.90;8.10;;;23.60;58.80;;;;;;5084466;28;20326;-69
2021/09/05 01:34:53;;;;;;;9.23;8.43;;;23.60;58.70;;;;;;5103547;28;20205;-69
2021/09/05 01:37:25;;;;;;;8.60;7.80;;;23.60;58.80;;;;;;5108692;28;20671;-68
2021/09/05 01:39:58;;;;;;;8.47;7.77;;;23.60;58.80;;;;;;5111577;28;20263;-68
2021/09/05 01:42:28;;;;;;;8.50;7.70;;;23.60;58.80;;;;;;5103390;28;20216;-68
2021/09/05 01:45:00;;;;;;;8.73;8.03;;;23.60;58.80;;;;;;5109551;28;20196;-68
2021/09/05 01:47:33;;;;;;;8.57;7.73;;;23.50;58.70;;;;;;5109936;28;20196;-69
2021/09/05 01:50:04;;;;;;;8.90;8.10;;;23.50;58.80;;;;;;5111251;28;20195;-68
2021/09/05 01:52:34;;;;;;;8.47;7.67;;;23.50;58.80;;;;;;5110135;28;20207;-68
2021/09/05 01:55:06;;;;;;;8.40;7.70;;;23.50;58.80;;;;;;5107815;28;20200;-68
2021/09/05 01:57:37;;;;;;;8.87;7.90;;;23.50;58.80;;;;;;5109172;28;20212;-68
2021/09/05 02:00:08;;;;;;;8.07;7.37;;;23.50;58.80;;;;;;5091569;28;20189;-68
2021/09/05 02:02:38;;;;;;;8.40;7.67;;;23.50;58.80;;;;;;5109517;28;20697;-68
2021/09/05 02:05:08;;;;;;;8.97;8.17;;;23.50;58.80;;;;;;5102687;28;20196;-68
2021/09/05 02:07:38;;;;;;;9.23;8.43;;;23.50;58.80;;;;;;5091845;28;20204;-68
2021/09/05 02:10:06;;;;;;;8.60;7.83;;;23.40;58.80;;;;;;5106773;28;20216;-67
2021/09/05 02:12:42;;;;;;;8.03;7.33;;;23.40;58.80;;;;;;5109334;28;20200;-68
2021/09/05 02:15:14;;;;;;;8.53;7.83;;;23.40;58.80;;;;;;5119409;27;20324;-68
2021/09/05 02:17:45;;;;;;;8.33;7.60;;;23.40;58.80;;;;;;5106874;28;20234;-68
2021/09/05 02:20:16;;;;;;;8.90;8.13;;;23.40;58.90;;;;;;5111652;28;20192;-68
2021/09/05 02:22:46;;;;;;;7.63;6.93;;;23.40;58.90;;;;;;5090070;28;20196;-67
2021/09/05 02:25:15;;;;;;;8.90;8.07;;;23.40;58.90;;;;;;5093912;28;20192;-68
2021/09/05 02:27:46;;;;;;;9.47;8.17;;;23.40;58.90;;;;;;5091193;28;20242;-68
2021/09/05 02:30:16;;;;;;;8.97;8.17;;;23.40;58.90;;;;;;5109481;28;20223;-68
2021/09/05 02:32:45;;;;;;;8.73;7.93;;;23.40;58.90;;;;;;5083648;28;20197;-68
2021/09/05 02:35:19;;;;;;;8.30;7.60;;;23.40;58.90;;;;;;5103603;28;20510;-68
2021/09/05 02:37:53;;;;;;;8.43;7.60;;;23.40;58.90;;;;;;5108278;28;20192;-68
2021/09/05 02:40:21;;;;;;;8.77;7.97;;;23.40;58.90;;;;;;5109450;28;20524;-68
2021/09/05 02:42:50;;;;;;;8.23;7.43;;;23.40;58.90;;;;;;5088911;28;20687;-69
2021/09/05 02:45:26;;;;;;;7.87;7.27;;;23.30;58.90;;;;;;5109079;28;20848;-68
2021/09/05 02:47:56;;;;;;;7.87;7.17;;;23.40;58.90;;;;;;5112155;27;20209;-68
2021/09/05 02:50:28;;;;;;;8.30;7.60;;;23.30;58.90;;;;;;5105877;28;20742;-68
2021/09/05 02:52:58;;;;;;;8.03;7.33;;;23.30;58.90;;;;;;5104142;28;20231;-68
2021/09/05 02:55:27;;;;;;;7.83;7.03;;;23.30;58.90;;;;;;5105760;28;20204;-68
2021/09/05 02:57:57;;;;;;;8.20;7.50;;;23.30;58.90;;;;;;5111539;27;20230;-68
2021/09/05 03:00:32;;;;;;;8.13;7.33;;;23.30;58.90;;;;;;5109720;28;20192;-68
2021/09/05 03:03:05;;;;;;;8.43;7.70;;;23.30;58.90;;;;;;5095253;28;20208;-68
2021/09/05 03:05:38;;;;;;;8.03;7.30;;;23.30;58.90;;;;;;5108217;28;20539;-68
2021/09/05 03:08:08;;;;;;;8.03;7.33;;;23.30;58.90;;;;;;5109245;28;20231;-69
2021/09/05 03:10:40;;;;;;;8.10;7.40;;;23.30;58.90;;;;;;5106588;28;20215;-68
2021/09/05 03:13:12;;;;;;;8.13;7.43;;;23.30;58.90;;;;;;5111197;28;20799;-68
2021/09/05 03:15:42;;;;;;;7.73;7.03;;;23.30;58.90;;;;;;5106965;28;20195;-69
2021/09/05 03:18:11;;;;;;;8.27;7.40;;;23.30;58.90;;;;;;5094851;28;20249;-68
2021/09/05 03:20:43;;;;;;;8.10;7.30;;;23.30;58.90;;;;;;5105706;27;20200;-70
2021/09/05 03:23:14;;;;;;;7.60;7.00;;;23.30;58.90;;;;;;5113658;27;20199;-68
2021/09/05 03:25:42;;;;;;;8.03;7.33;;;23.30;58.90;;;;;;5110417;27;20287;-67
2021/09/05 03:28:12;;;;;;;7.67;6.97;;;23.30;58.90;;;;;;5120397;28;20219;-69
2021/09/05 03:30:55;;;;;;;9.57;7.60;;;23.30;58.90;;;;;;5117500;28;20228;-67
2021/09/05 03:33:25;;;;;;;7.27;6.53;;;23.20;58.90;;;;;;5105217;28;20207;-69
2021/09/05 03:35:56;;;;;;;7.90;7.00;;;23.20;58.90;;;;;;5120219;28;20432;-68
2021/09/05 03:38:27;;;;;;;7.30;6.70;;;23.20;58.90;;;;;;5125008;28;20191;-68
2021/09/05 03:40:57;;;;;;;7.60;6.90;;;23.20;58.90;;;;;;5121242;28;20204;-68
2021/09/05 03:43:28;;;;;;;7.43;6.83;;;23.20;58.90;;;;;;5104475;28;20736;-68
2021/09/05 03:45:58;;;;;;;7.67;6.97;;;23.20;58.90;;;;;;5115094;28;20209;-68
2021/09/05 03:48:28;;;;;;;7.43;6.73;;;23.20;58.90;;;;;;5117786;28;20213;-68
2021/09/05 03:51:09;;;;;;;7.87;7.17;;;23.20;58.90;;;;;;5102046;28;20540;-68
2021/09/05 03:53:39;;;;;;;7.50;6.80;;;23.20;58.90;;;;;;5097294;28;20204;-68
2021/09/05 03:56:07;;;;;;;7.03;6.43;;;23.20;58.90;;;;;;5113626;28;20257;-68
2021/09/05 03:58:35;;;;;;;7.40;6.80;;;23.20;59.50;;;;;;5113662;27;20192;-68
2021/09/05 04:01:07;;;;;;;7.13;6.43;;;23.20;58.90;;;;;;5111970;28;20555;-68
2021/09/05 04:03:40;;;;;;;6.97;6.37;;;23.20;58.90;;;;;;5106712;28;20201;-68
2021/09/05 04:06:10;;;;;;;7.53;6.83;;;23.20;58.90;;;;;;5111565;28;20200;-68
2021/09/05 04:08:42;;;;;;;6.80;6.20;;;23.20;58.80;;;;;;5101576;28;20224;-68
2021/09/05 04:11:12;;;;;;;6.60;6.10;;;23.20;58.80;;;;;;5105942;28;20196;-67
2021/09/05 04:13:44;;;;;;;7.50;6.80;;;23.10;58.80;;;;;;5103994;28;20199;-67
2021/09/05 04:16:14;;;;;;;7.93;7.17;;;23.20;58.80;;;;;;5093891;28;20215;-68
2021/09/05 04:18:46;;;;;;;7.37;6.77;;;23.10;58.80;;;;;;5104287;28;20211;-68
2021/09/05 04:21:19;;;;;;;7.47;6.77;;;23.10;58.80;;;;;;5092668;28;20247;-68
2021/09/05 04:23:50;;;;;;;7.00;6.40;;;23.10;58.70;;;;;;5102512;28;20702;-68
2021/09/05 04:26:19;;;;;;;7.33;6.63;;;23.10;58.70;;;;;;5104014;28;20308;-68
2021/09/05 04:28:46;;;;;;;6.93;6.23;;;23.10;58.70;;;;;;5099969;28;20669;-68
2021/09/05 04:31:31;;;;;;;7.10;6.43;;;23.10;58.70;;;;;;5097330;28;20234;-68
2021/09/05 04:34:01;;;;;;;7.03;6.33;;;23.10;58.70;;;;;;5090967;28;20188;-69
2021/09/05 04:36:33;;;;;;;6.80;6.20;;;23.10;58.70;;;;;;5109262;28;20214;-68
2021/09/05 04:39:05;;;;;;;6.50;5.90;;;23.10;58.70;;;;;;5106555;28;20303;-68
2021/09/05 04:41:37;;;;;;;6.93;6.23;;;23.10;58.70;;;;;;5109132;28;20502;-67
2021/09/05 04:44:18;;;;;;;6.50;5.90;;;23.10;58.70;;;;;;5108013;28;20196;-68
2021/09/05 04:46:50;;;;;;;6.83;6.23;;;23.00;58.60;;;;;;5098793;28;20664;-68
2021/09/05 04:49:18;;;;;;;6.73;6.10;;;23.00;58.60;;;;;;5108092;28;20234;-68
2021/09/05 04:51:47;;;;;;;6.67;6.07;;;23.00;58.60;;;;;;5112334;28;20200;-67
2021/09/05 04:54:16;;;;;;;6.70;6.10;;;23.00;58.60;;;;;;5106794;28;20571;-67
2021/09/05 04:56:46;;;;;;;6.80;6.20;;;23.00;58.60;;;;;;5091936;28;20201;-68
2021/09/05 04:59:23;;;;;;;6.83;6.23;;;23.00;58.60;;;;;;5069011;28;20685;-67
2021/09/05 05:01:54;;;;;;;6.80;6.10;;;23.00;58.60;;;;;;5103290;28;20246;-66
2021/09/05 05:04:22;;;;;;;6.10;5.60;;;23.00;58.60;;;;;;5101382;28;20208;-66
2021/09/05 05:06:55;;;;;;;6.63;6.03;;;23.00;58.50;;;;;;5105873;28;20235;-66
2021/09/05 05:09:26;;;;;;;6.87;6.27;;;23.00;58.50;;;;;;5096628;28;20546;-66
2021/09/05 05:11:56;;;;;;;6.90;6.30;;;23.00;58.50;;;;;;5103954;28;20238;-66
2021/09/05 05:14:27;;;;;;;6.93;6.33;;;23.00;58.50;;;;;;5108835;28;20196;-67
2021/09/05 05:16:58;;;;;;;6.50;5.90;;;23.00;58.50;;;;;;5088014;28;20336;-68
2021/09/05 05:19:28;;;;;;;6.50;5.90;;;23.00;58.50;;;;;;5088696;28;20238;-68
2021/09/05 05:22:00;;;;;;;6.60;6.00;;;23.00;58.50;;;;;;5098541;28;20878;-67
2021/09/05 05:24:30;;;;;;;6.43;5.83;;;23.00;58.50;;;;;;5078233;28;20674;-67
2021/09/05 05:27:00;;;;;;;6.70;6.10;;;23.00;58.50;;;;;;5087087;28;20626;-67
2021/09/05 05:29:35;;;;;;;6.53;5.93;;;23.00;58.40;;;;;;5111441;28;20250;-68
2021/09/05 05:32:06;;;;;;;6.43;5.93;;;22.90;58.30;;;;;;5109052;28;20680;-67
2021/09/05 05:34:36;;;;;;;6.50;5.90;;;22.90;58.40;;;;;;5105834;28;20200;-66
2021/09/05 05:37:08;;;;;;;6.43;5.93;;;22.90;58.30;;;;;;5107468;28;20490;-67
2021/09/05 05:39:37;;;;;;;6.33;5.67;;;23.00;58.40;;;;;;5101659;28;20614;-67
2021/09/05 05:42:11;;;;;;;6.20;5.60;;;22.90;58.30;;;;;;5108630;27;20693;-68
2021/09/05 05:44:40;;;;;;;6.47;5.90;;;22.90;58.40;;;;;;5111512;28;20207;-68
2021/09/05 05:47:10;;;;;;;6.20;5.70;;;22.90;58.30;;;;;;5111152;27;20196;-68
2021/09/05 05:49:46;;;;;;;6.10;5.60;;;22.90;58.30;;;;;;5105405;27;20216;-67
2021/09/05 05:52:16;;;;;;;6.77;6.13;;;22.90;58.30;;;;;;5056920;28;20209;-68
2021/09/05 05:54:45;;;;;;;6.10;5.60;;;22.90;58.30;;;;;;5106965;28;20201;-68
2021/09/05 05:57:17;;;;;;;6.37;5.87;;;22.90;58.30;;;;;;5101625;28;20204;-66
2021/09/05 05:59:49;;;;;;;7.33;5.50;;;22.90;58.30;;;;;;5093385;28;20230;-66
2021/09/05 06:02:22;;;;;;;6.13;5.53;;;22.90;58.30;;;;;;5095891;28;20196;-69
2021/09/05 06:04:54;;;;;;;6.20;5.60;;;22.90;58.20;;;;;;5091791;27;20561;-69
2021/09/05 06:07:25;;;;;;;6.43;5.83;;;22.90;58.10;;;;;;5112294;27;20199;-71
2021/09/05 06:09:57;;;;;;;10.07;6.93;;;22.90;58.00;;;;;;5092941;28;20217;-68
2021/09/05 06:12:24;;;;;;;15.90;8.23;;;22.90;57.90;;;;;;5110596;28;20300;-69
2021/09/05 06:14:53;;;;;;;25.93;9.70;;;22.90;58.20;;;;;;5109643;27;20200;-69
2021/09/05 06:17:24;;;;;;;21.40;10.63;;;22.90;58.30;;;;;;5097490;28;20242;-67
2021/09/05 06:19:55;;;;;;;25.90;10.87;;;22.80;58.30;;;;;;5089663;28;20212;-67
2021/09/05 06:22:24;;;;;;;28.03;11.60;;;22.90;58.40;;;;;;5087354;28;20388;-67
2021/09/05 06:24:57;;;;;;;31.07;12.23;;;22.90;58.50;;;;;;5101639;28;20694;-67
2021/09/05 06:27:37;;;;;;;26.13;11.73;;;22.90;58.50;;;;;;5088553;28;20231;-67
2021/09/05 06:30:06;;;;;;;24.63;11.17;;;22.90;58.50;;;;;;5100213;28;20205;-67
2021/09/05 06:32:39;;;;;;;22.00;10.90;;;22.90;58.40;;;;;;5100851;28;20220;-67
2021/09/05 06:35:06;;;;;;;19.83;10.63;;;22.80;58.30;;;;;;5085367;28;20204;-68
2021/09/05 06:37:38;;;;;;;21.00;10.67;;;22.80;58.20;;;;;;5101787;28;20849;-68
2021/09/05 06:40:14;;;;;;;18.90;10.03;;;22.90;58.20;;;;;;5077564;28;20193;-68
2021/09/05 06:42:46;;;;;;;15.70;9.53;;;22.90;58.10;;;;;;5090479;28;20236;-67
2021/09/05 06:45:23;;;;;;;19.33;10.00;;;22.90;58.20;;;;;;5087060;28;20206;-67
2021/09/05 06:47:54;;;;;;;13.80;9.33;;;22.80;58.20;;;;;;5104808;28;20208;-68
2021/09/05 06:50:26;;;;;;;19.00;9.17;;;22.80;58.10;;;;;;5109025;28;20226;-66
2021/09/05 06:52:58;;;;;;;15.50;9.50;;;22.80;58.20;;;;;;5102671;28;20219;-66
2021/09/05 06:55:30;;;;;;;14.30;8.77;;;22.80;58.30;;;;;;5098722;28;20197;-68
2021/09/05 06:58:00;;;;;;;14.13;9.00;;;22.80;58.60;;;;;;5100633;28;20237;-69
2021/09/05 07:00:31;;;;;;;12.37;8.50;;;22.90;59.20;;;;;;5097376;28;20199;-68
2021/09/05 07:03:02;;;;;;;13.53;9.20;;;22.90;58.50;;;;;;5104131;28;20265;-69
2021/09/05 07:05:34;;;;;;;14.77;9.00;;;22.80;58.30;;;;;;5109918;28;20644;-68
2021/09/05 07:08:05;;;;;;;12.20;8.17;;;22.80;58.20;;;;;;5091018;28;20192;-69
2021/09/05 07:10:54;;;;;;;14.00;8.50;;;22.90;58.30;;;;;;5088691;28;20220;-69
2021/09/05 07:13:24;;;;;;;12.20;8.50;;;22.80;58.30;;;;;;5102831;28;20521;-69
2021/09/05 07:15:55;;;;;;;14.30;8.87;;;22.80;58.30;;;;;;5092327;28;20205;-68
2021/09/05 07:18:25;;;;;;;12.13;8.30;;;22.80;58.30;;;;;;5106627;28;20812;-67
2021/09/05 07:20:55;;;;;;;12.43;7.70;;;22.90;58.40;;;;;;5089148;28;20204;-67
2021/09/05 07:23:23;;;;;;;13.77;8.27;;;22.90;58.40;;;;;;5106502;28;20885;-68
2021/09/05 07:25:50;;;;;;;9.90;7.53;;;22.80;58.30;;;;;;5095310;28;20192;-68
2021/09/05 07:28:21;;;;;;;12.97;7.43;;;22.90;58.30;;;;;;5102578;28;20196;-69
2021/09/05 07:30:52;;;;;;;10.07;7.13;;;22.90;58.30;;;;;;5108164;28;20212;-69
2021/09/05 07:33:23;;;;;;;12.50;7.57;;;22.80;58.20;;;;;;5096035;28;20196;-69
2021/09/05 07:35:54;;;;;;;9.30;7.20;;;22.90;58.30;;;;;;5106855;28;20533;-68
2021/09/05 07:38:23;;;;;;;10.17;7.60;;;22.80;58.20;;;;;;5100650;28;20243;-67
2021/09/05 07:40:55;;;;;;;8.80;7.20;;;22.90;58.30;;;;;;5108393;28;20208;-70
2021/09/05 07:43:24;;;;;;;8.00;7.10;;;22.80;58.30;;;;;;5107433;27;20262;-70
2021/09/05 07:45:57;;;;;;;10.07;7.17;;;22.80;58.30;;;;;;5108256;28;20181;-69
2021/09/05 07:48:29;;;;;;;9.17;7.00;;;22.90;58.40;;;;;;5096353;28;20619;-69
2021/09/05 07:51:01;;;;;;;12.67;7.43;;;22.90;58.40;;;;;;5103027;27;20231;-69
2021/09/05 07:53:32;;;;;;;7.90;6.63;;;22.90;58.40;;;;;;5104900;28;20197;-70
2021/09/05 07:56:04;;;;;;;8.73;6.90;;;22.90;58.40;;;;;;5099512;28;20205;-70
2021/09/05 07:58:36;;;;;;;8.83;7.07;;;22.80;58.40;;;;;;5081039;28;20264;-69
2021/09/05 08:01:06;;;;;;;7.73;6.97;;;22.90;58.40;;;;;;5093165;28;20330;-68
2021/09/05 08:03:39;;;;;;;11.43;7.20;;;22.80;58.40;;;;;;5103966;28;20241;-67
2021/09/05 08:06:12;;;;;;;10.93;6.70;;;22.90;58.40;;;;;;5094322;28;20193;-67
2021/09/05 08:08:42;;;;;;;8.57;6.30;;;22.80;58.30;;;;;;5106465;27;20311;-67
2021/09/05 08:11:14;;;;;;;8.67;6.77;;;22.80;58.30;;;;;;5084825;28;20254;-68
2021/09/05 08:13:44;;;;;;;8.17;7.37;;;22.90;59.00;;;;;;5089186;27;20424;-68
2021/09/05 08:16:15;;;;;;;7.23;6.53;;;22.90;58.40;;;;;;5097501;28;20191;-69
2021/09/05 08:18:47;;;;;;;8.77;6.57;;;22.90;58.40;;;;;;5105516;28;20230;-68
2021/09/05 08:21:18;;;;;;;7.97;6.83;;;22.90;58.40;;;;;;5093251;28;20184;-67
2021/09/05 08:23:48;;;;;;;7.30;6.57;;;22.90;58.40;;;;;;5090149;28;20192;-67
2021/09/05 08:26:20;;;;;;;8.93;7.30;;;22.90;58.40;;;;;;5098215;28;20732;-67
2021/09/05 08:28:51;;;;;;;7.50;6.70;;;22.90;58.40;;;;;;5104501;28;20215;-67
2021/09/05 08:31:24;;;;;;;7.73;6.93;;;22.90;58.30;;;;;;5103055;28;20212;-66
2021/09/05 08:33:57;;;;;;;7.40;6.40;;;22.90;58.40;;;;;;5098290;28;20665;-66
2021/09/05 08:36:26;;;;;;;7.50;6.80;;;22.90;58.40;;;;;;5107018;28;20214;-66
2021/09/05 08:38:55;;;;;;;7.30;6.57;;;22.90;58.40;;;;;;5108657;28;20243;-66
2021/09/05 08:41:26;;;;;;;8.93;6.90;;;22.90;58.40;;;;;;5106499;28;20240;-66
2021/09/05 08:43:57;;;;;;;7.80;6.67;;;22.90;58.40;;;;;;5092073;28;20228;-67
2021/09/05 08:46:27;;;;;;;7.17;6.23;;;22.90;58.40;;;;;;5082169;28;20287;-66
2021/09/05 08:49:01;;;;;;;6.87;6.27;;;22.90;58.40;;;;;;5089795;28;20641;-66
2021/09/05 08:51:34;;;;;;;7.00;6.30;;;22.90;58.40;;;;;;5087778;28;20227;-66
2021/09/05 08:54:05;;;;;;;7.03;6.40;;;22.90;58.40;;;;;;5081733;28;20204;-66
2021/09/05 08:56:36;;;;;;;8.67;7.10;;;22.90;58.40;;;;;;5103401;28;20197;-66
2021/09/05 08:59:06;;;;;;;7.50;6.80;;;22.90;58.40;;;;;;5095816;28;20193;-66
2021/09/05 09:01:35;;;;;;;7.80;6.67;;;22.90;58.50;;;;;;5108052;28;20197;-66
2021/09/05 09:04:14;;;;;;;7.07;6.30;;;22.90;58.50;;;;;;5097617;28;20204;-66
2021/09/05 09:06:44;;;;;;;6.80;6.10;;;22.90;58.50;;;;;;5082495;28;20778;-66
2021/09/05 09:09:15;;;;;;;7.50;6.80;;;22.90;58.50;;;;;;5107423;28;20235;-66
2021/09/05 09:11:57;;;;;;;7.20;6.50;;;22.90;58.50;;;;;;5064030;28;20557;-66
2021/09/05 09:14:48;;;;;;;7.23;6.53;;;22.90;58.50;;;;;;5093256;28;20492;-66
2021/09/05 09:17:19;;;;;;;7.57;6.83;;;22.90;58.50;;;;;;5101660;28;20191;-67
2021/09/05 09:19:47;;;;;;;7.17;6.47;;;22.90;58.50;;;;;;5092715;28;20200;-66
2021/09/05 09:22:23;;;;;;;7.00;6.30;;;22.90;58.50;;;;;;5097746;28;20618;-66
2021/09/05 09:24:52;;;;;;;8.27;6.77;;;23.00;58.60;;;;;;5109979;27;20193;-67
2021/09/05 09:27:20;;;;;;;8.03;7.20;;;23.00;58.60;;;;;;5108725;28;20204;-66
2021/09/05 09:29:55;;;;;;;8.10;7.40;;;23.00;58.70;;;;;;5086604;28;20224;-66
2021/09/05 09:32:26;;;;;;;7.67;6.87;;;23.00;58.60;;;;;;5093218;28;20207;-66
2021/09/05 09:34:58;;;;;;;7.23;6.50;;;23.00;58.70;;;;;;5101180;28;20582;-66
2021/09/05 09:37:35;;;;;;;7.00;6.30;;;23.00;58.70;;;;;;5072066;28;20220;-67
2021/09/05 09:40:08;;;;;;;7.33;6.57;;;23.00;58.70;;;;;;5079300;28;20213;-67
2021/09/05 09:42:40;;;;;;;7.10;6.40;;;23.00;58.70;;;;;;5109880;28;20216;-67
2021/09/05 09:45:13;;;;;;;8.03;6.30;;;23.00;58.80;;;;;;5095437;28;20592;-67
2021/09/05 09:47:52;;;;;;;7.30;6.60;;;23.00;58.70;;;;;;5072458;28;20207;-67
2021/09/05 09:50:23;;;;;;;7.93;7.13;;;23.00;58.80;;;;;;5105061;28;20220;-67
2021/09/05 09:52:54;;;;;;;7.30;6.60;;;23.00;58.80;;;;;;5089771;28;20197;-66
2021/09/05 09:55:25;;;;;;;7.23;6.50;;;23.00;58.80;;;;;;5079667;28;20197;-67
2021/09/05 09:57:56;;;;;;;7.70;6.90;;;23.10;58.90;;;;;;5102689;28;20290;-67
2021/09/05 10:00:25;;;;;;;7.27;6.43;;;23.10;58.90;;;;;;5101287;28;20216;-66
2021/09/05 10:02:58;;;;;;;8.63;6.67;;;23.00;58.90;;;;;;5093256;28;20238;-66
2021/09/05 10:05:30;;;;;;;6.97;6.27;;;23.00;58.90;;;;;;5093575;28;20539;-66
2021/09/05 10:07:59;;;;;;;7.40;6.70;;;23.10;59.00;;;;;;5088298;28;20200;-67
2021/09/05 10:10:35;;;;;;;7.33;6.50;;;23.10;59.00;;;;;;5105055;28;20209;-66
2021/09/05 10:13:09;;;;;;;7.50;6.40;;;23.10;59.10;;;;;;5093731;28;20245;-66
2021/09/05 10:15:40;;;;;;;7.50;6.63;;;23.10;59.10;;;;;;5114391;27;20200;-66
2021/09/05 10:18:12;;;;;;;7.33;6.63;;;23.10;59.10;;;;;;5099764;28;20197;-66
2021/09/05 10:20:44;;;;;;;7.27;6.57;;;23.10;59.20;;;;;;5092136;28;20629;-67
2021/09/05 10:23:23;;;;;;;7.27;6.57;;;23.10;59.10;;;;;;5097165;28;20215;-66
2021/09/05 10:26:04;;;;;;;7.27;6.57;;;23.10;59.20;;;;;;5111057;28;20185;-67
2021/09/05 10:28:44;;;;;;;7.93;6.37;;;23.10;59.20;;;;;;5106885;28;20207;-66
2021/09/05 10:31:37;;;;;;;7.57;6.87;;;23.10;59.10;;;;;;5053119;28;20201;-67
2021/09/05 10:34:37;;;;;;;8.17;6.37;;;23.20;59.30;;;;;;5105673;28;20203;-66
2021/09/05 10:37:14;;;;;;;6.90;6.30;;;23.20;59.40;;;;;;5110031;28;20189;-66
2021/09/05 10:40:37;;;;;;;7.40;6.70;;;23.20;59.20;;;;;;5108320;27;20185;-66
2021/09/05 10:43:38;;;;;;;7.90;7.10;;;23.20;59.30;;;;;;5012127;28;20246;-66
2021/09/05 10:46:07;;;;;;;7.87;7.07;;;23.20;59.40;;;;;;5011418;28;20207;-66
2021/09/05 10:48:50;;;;;;;8.10;7.03;;;23.20;59.40;;;;;;4998553;28;20246;-66
2021/09/05 10:51:39;;;;;;;8.27;7.37;;;23.20;59.50;;;;;;5002784;28;20729;-66
2021/09/05 10:54:26;;;;;;;9.03;6.80;;;23.20;59.50;;;;;;5008671;28;20215;-66
2021/09/05 10:56:59;;;;;;;7.00;6.40;;;23.30;59.60;;;;;;4998108;28;20208;-67
2021/09/05 10:59:33;;;;;;;7.17;6.47;;;23.20;59.50;;;;;;5009169;28;20580;-67
2021/09/05 11:02:07;;;;;;;7.80;7.00;;;23.30;59.60;;;;;;5062325;28;20236;-66
2021/09/05 11:04:42;;;;;;;7.10;6.40;;;23.30;59.70;;;;;;5081874;28;20209;-66
2021/09/05 11:07:29;;;;;;;7.53;6.83;;;23.30;59.70;;;;;;5068885;28;20189;-66
2021/09/05 11:09:58;;;;;;;7.47;6.67;;;23.30;59.70;;;;;;5073030;28;20674;-66
2021/09/05 11:12:40;;;;;;;8.00;7.20;;;23.30;59.90;;;;;;5086830;28;20202;-66
2021/09/05 11:15:15;;;;;;;7.47;6.73;;;23.30;60.00;;;;;;5047490;28;20200;-66
2021/09/05 11:17:53;;;;;;;7.40;6.70;;;23.30;60.00;;;;;;5083447;28;20262;-66
2021/09/05 11:20:24;;;;;;;7.83;7.03;;;23.40;60.30;;;;;;5072146;28;20200;-66
2021/09/05 11:22:56;;;;;;;8.03;7.23;;;23.40;60.20;;;;;;5082441;28;20218;-66
2021/09/05 11:25:29;;;;;;;7.80;6.33;;;23.40;60.40;;;;;;5052480;28;20212;-66
2021/09/05 11:28:12;;;;;;;7.33;6.63;;;23.40;60.40;;;;;;5058480;28;20222;-66
2021/09/05 11:31:04;;;;;;;7.37;6.70;;;23.40;60.50;;;;;;5074587;28;21618;-66
2021/09/05 11:33:35;;;;;;;7.27;6.57;;;23.40;60.50;;;;;;5089419;28;20603;-66
2021/09/05 11:36:14;;;;;;;8.03;7.20;;;23.40;60.50;;;;;;5067527;28;20230;-66
2021/09/05 11:38:45;;;;;;;7.80;7.10;;;23.40;60.60;;;;;;5077509;28;20203;-66
2021/09/05 11:41:23;;;;;;;7.03;6.33;;;23.40;60.70;;;;;;5077609;28;20206;-66
2021/09/05 11:43:52;;;;;;;7.13;6.43;;;23.50;60.90;;;;;;5075041;28;20245;-67
2021/09/05 11:46:25;;;;;;;7.10;6.47;;;23.50;60.90;;;;;;5108464;28;20188;-66
2021/09/05 11:49:02;;;;;;;7.50;6.80;;;23.50;61.00;;;;;;5103423;28;20524;-66
2021/09/05 11:51:33;;;;;;;6.73;6.13;;;23.50;61.20;;;;;;5098713;28;20244;-66
2021/09/05 11:54:04;;;;;;;7.70;7.00;;;23.50;61.30;;;;;;5108045;27;20196;-67
2021/09/05 11:56:34;;;;;;;7.13;6.43;;;23.60;61.60;;;;;;5077362;28;20599;-66
2021/09/05 11:59:12;;;;;;;7.57;6.80;;;23.60;61.60;;;;;;5084822;28;20278;-66
2021/09/05 12:01:50;;;;;;;7.13;6.43;;;23.60;61.80;;;;;;5086575;28;20200;-66
2021/09/05 12:04:23;;;;;;;7.10;6.40;;;23.60;62.00;;;;;;5107206;28;20250;-66
2021/09/05 12:06:54;;;;;;;6.80;6.20;;;23.60;61.90;;;;;;5069118;28;20229;-66
2021/09/05 12:09:32;;;;;;;7.60;6.80;;;23.70;62.10;;;;;;5100563;28;20192;-67
2021/09/05 12:12:05;;;;;;;7.67;6.20;;;23.70;62.10;;;;;;5047286;28;20212;-66
2021/09/05 12:14:39;;;;;;;7.10;6.47;;;23.70;62.10;;;;;;5080244;28;20250;-66
2021/09/05 12:17:26;;;;;;;6.53;5.90;;;23.70;62.20;;;;;;5103154;28;20188;-66
2021/09/05 12:20:06;;;;;;;7.13;6.43;;;23.70;62.40;;;;;;5101492;28;20860;-66
2021/09/05 12:22:51;;;;;;;7.17;6.47;;;23.70;62.50;;;;;;5099318;28;20211;-66
2021/09/05 12:25:34;;;;;;;7.23;6.53;;;23.70;62.60;;;;;;5070892;28;20216;-66
2021/09/05 12:28:09;;;;;;;7.23;6.53;;;23.80;62.80;;;;;;5090951;28;20235;-67
2021/09/05 12:30:58;;;;;;;8.07;6.37;;;23.80;62.80;;;;;;5090854;28;20216;-66
2021/09/05 12:33:36;;;;;;;7.60;6.90;;;23.80;62.90;;;;;;5107728;28;20668;-66
2021/09/05 12:36:20;;;;;;;7.40;6.37;;;23.80;62.90;;;;;;5107283;28;20200;-66
2021/09/05 12:39:04;;;;;;;6.77;6.17;;;23.80;63.00;;;;;;5111374;27;20195;-66
2021/09/05 12:41:45;;;;;;;6.23;5.50;;;23.80;63.10;;;;;;5096507;28;20210;-66
2021/09/05 12:44:21;;;;;;;6.37;5.77;;;23.80;63.10;;;;;;5115402;28;20251;-66
2021/09/05 12:46:49;;;;;;;6.43;5.83;;;23.90;63.30;;;;;;5113811;27;20288;-66
2021/09/05 12:49:22;;;;;;;6.97;6.27;;;23.90;63.40;;;;;;5087512;28;20222;-66
2021/09/05 12:51:55;;;;;;;6.83;6.13;;;23.90;63.40;;;;;;5108720;27;20246;-66
2021/09/05 12:54:27;;;;;;;7.50;6.80;;;23.90;63.40;;;;;;5106440;28;20214;-66
2021/09/05 12:56:56;;;;;;;7.70;6.87;;;23.90;63.50;;;;;;5097296;28;20219;-67
2021/09/05 12:59:29;;;;;;;6.43;5.83;;;23.90;63.60;;;;;;5113273;27;20597;-66
2021/09/05 13:01:58;;;;;;;6.50;5.70;;;24.00;63.70;;;;;;5096409;28;20204;-66
2021/09/05 13:04:28;;;;;;;7.40;6.33;;;24.00;63.70;;;;;;5098855;28;20222;-66
2021/09/05 13:07:00;;;;;;;7.87;6.80;;;24.00;63.70;;;;;;5103967;28;20757;-66
2021/09/05 13:09:28;;;;;;;7.57;6.93;;;24.00;63.70;;;;;;5093448;28;20239;-66
2021/09/05 13:11:56;;;;;;;6.87;6.23;;;24.00;63.80;;;;;;5103384;28;20274;-66
2021/09/05 13:14:27;;;;;;;6.67;6.07;;;24.00;63.80;;;;;;5113017;28;20201;-66